sensor_id;sensor_type;location;lat;lon;timestamp;pressure;altitude;pressure_sealevel;temperature;humidity
65534;BME280;53640;55.838;37.184;2022-12-19T00:01:35;100194.63;;;-11.17;61.07
65534;BME280;53640;55.838;37.184;2022-12-19T00:04:04;100205.38;;;-11.01;60.75
65534;BME280;53640;55.838;37.184;2022-12-19T00:06:32;100231.63;;;-10.82;61.01
65534;BME280;53640;55.838;37.184;2022-12-19T00:08:59;100192.84;;;-10.93;61.22
65534;BME280;53640;55.838;37.184;2022-12-19T00:11:27;100202.88;;;-10.84;61.30
65534;BME280;53640;55.838;37.184;2022-12-19T00:13:54;100195.97;;;-10.85;61.13
65534;BME280;53640;55.838;37.184;2022-12-19T00:16:24;100251.31;;;-10.52;60.87
65534;BME280;53640;55.838;37.184;2022-12-19T00:18:52;100247.78;;;-10.51;61.10
65534;BME280;53640;55.838;37.184;2022-12-19T00:21:20;100259.69;;;-10.44;61.15
65534;BME280;53640;55.838;37.184;2022-12-19T00:23:48;100250.16;;;-10.45;61.13
65534;BME280;53640;55.838;37.184;2022-12-19T00:26:29;100242.22;;;-10.43;61.11
65534;BME280;53640;55.838;37.184;2022-12-19T00:29:00;100181.19;;;-10.86;61.00
65534;BME280;53640;55.838;37.184;2022-12-19T00:31:30;100229.78;;;-10.58;60.92
65534;BME280;53640;55.838;37.184;2022-12-19T00:33:58;100266.25;;;-10.33;60.97
65534;BME280;53640;55.838;37.184;2022-12-19T00:36:26;100270.66;;;-10.34;60.99
65534;BME280;53640;55.838;37.184;2022-12-19T00:38:55;100253.31;;;-10.37;60.93
65534;BME280;53640;55.838;37.184;2022-12-19T00:41:27;100272.34;;;-10.33;60.96
65534;BME280;53640;55.838;37.184;2022-12-19T00:43:57;100255.06;;;-10.37;61.00
65534;BME280;53640;55.838;37.184;2022-12-19T00:46:24;100252.25;;;-10.32;60.91
65534;BME280;53640;55.838;37.184;2022-12-19T00:48:52;100245.56;;;-10.40;61.04
65534;BME280;53640;55.838;37.184;2022-12-19T00:51:21;100249.75;;;-10.35;60.76
65534;BME280;53640;55.838;37.184;2022-12-19T00:53:49;100189.50;;;-10.76;60.88
65534;BME280;53640;55.838;37.184;2022-12-19T00:56:24;100229.38;;;-10.49;61.12
65534;BME280;53640;55.838;37.184;2022-12-19T00:58:51;100233.53;;;-10.44;61.03
65534;BME280;53640;55.838;37.184;2022-12-19T01:03:49;100224.88;;;-10.46;61.31
65534;BME280;53640;55.838;37.184;2022-12-19T01:06:15;100224.16;;;-10.49;61.13
65534;BME280;53640;55.838;37.184;2022-12-19T01:08:42;100193.47;;;-10.66;61.22
65534;BME280;53640;55.838;37.184;2022-12-19T01:11:09;100250.81;;;-10.40;61.27
65534;BME280;53640;55.838;37.184;2022-12-19T01:13:37;100247.22;;;-10.37;61.23
65534;BME280;53640;55.838;37.184;2022-12-19T01:16:09;100241.06;;;-10.36;61.39
65534;BME280;53640;55.838;37.184;2022-12-19T01:18:36;100204.84;;;-10.67;61.32
65534;BME280;53640;55.838;37.184;2022-12-19T01:21:06;100228.59;;;-10.51;61.60
65534;BME280;53640;55.838;37.184;2022-12-19T01:23:34;100222.00;;;-10.60;61.52
65534;BME280;53640;55.838;37.184;2022-12-19T01:26:01;100201.00;;;-10.58;61.49
65534;BME280;53640;55.838;37.184;2022-12-19T01:28:28;100229.88;;;-10.40;61.81
65534;BME280;53640;55.838;37.184;2022-12-19T01:30:55;100217.75;;;-10.42;61.73
65534;BME280;53640;55.838;37.184;2022-12-19T01:33:22;100196.41;;;-10.53;61.87
65534;BME280;53640;55.838;37.184;2022-12-19T01:35:49;100200.56;;;-10.48;61.83
65534;BME280;53640;55.838;37.184;2022-12-19T01:38:18;100233.69;;;-10.26;61.70
65534;BME280;53640;55.838;37.184;2022-12-19T01:40:52;100200.16;;;-10.39;61.86
65534;BME280;53640;55.838;37.184;2022-12-19T01:43:20;100181.97;;;-10.42;61.88
65534;BME280;53640;55.838;37.184;2022-12-19T01:45:53;100174.28;;;-10.45;62.11
65534;BME280;53640;55.838;37.184;2022-12-19T01:48:36;100174.78;;;-10.37;62.05
65534;BME280;53640;55.838;37.184;2022-12-19T01:51:06;100208.50;;;-10.08;62.16
65534;BME280;53640;55.838;37.184;2022-12-19T01:53:41;100214.44;;;-10.05;62.36
65534;BME280;53640;55.838;37.184;2022-12-19T01:56:09;100203.91;;;-10.03;62.37
65534;BME280;53640;55.838;37.184;2022-12-19T01:58:39;100182.31;;;-10.08;62.39
65534;BME280;53640;55.838;37.184;2022-12-19T02:01:08;100165.03;;;-10.13;62.38
65534;BME280;53640;55.838;37.184;2022-12-19T02:03:35;100167.59;;;-10.11;62.42
65534;BME280;53640;55.838;37.184;2022-12-19T02:06:04;100194.59;;;-9.90;62.44
65534;BME280;53640;55.838;37.184;2022-12-19T02:08:34;100165.63;;;-10.06;62.23
65534;BME280;53640;55.838;37.184;2022-12-19T02:11:01;100143.00;;;-10.07;62.43
65534;BME280;53640;55.838;37.184;2022-12-19T02:13:29;100182.22;;;-9.86;62.27
65534;BME280;53640;55.838;37.184;2022-12-19T02:16:34;100199.03;;;-9.72;62.18
65534;BME280;53640;55.838;37.184;2022-12-19T02:19:31;100200.00;;;-9.74;62.05
65534;BME280;53640;55.838;37.184;2022-12-19T02:28:55;100181.97;;;-9.80;61.63
65534;BME280;53640;55.838;37.184;2022-12-19T02:31:28;100132.97;;;-10.18;61.61
65534;BME280;53640;55.838;37.184;2022-12-19T02:36:40;100159.25;;;-10.00;61.94
65534;BME280;53640;55.838;37.184;2022-12-19T02:39:14;100161.75;;;-9.97;61.38
65534;BME280;53640;55.838;37.184;2022-12-19T02:42:10;100170.81;;;-9.85;61.85
65534;BME280;53640;55.838;37.184;2022-12-19T02:44:47;100136.91;;;-10.07;61.24
65534;BME280;53640;55.838;37.184;2022-12-19T02:47:16;100121.25;;;-10.09;61.16
65534;BME280;53640;55.838;37.184;2022-12-19T02:49:44;100105.84;;;-10.15;61.37
65534;BME280;53640;55.838;37.184;2022-12-19T02:54:45;100130.31;;;-9.97;61.71
65534;BME280;53640;55.838;37.184;2022-12-19T03:08:48;100145.00;;;-9.74;61.85
65534;BME280;53640;55.838;37.184;2022-12-19T03:11:20;100100.03;;;-10.03;61.64
65534;BME280;53640;55.838;37.184;2022-12-19T03:14:08;100140.69;;;-9.75;61.83
65534;BME280;53640;55.838;37.184;2022-12-19T03:16:36;100095.88;;;-10.07;62.14
65534;BME280;53640;55.838;37.184;2022-12-19T03:19:08;100111.16;;;-9.98;62.09
65534;BME280;53640;55.838;37.184;2022-12-19T03:21:39;100098.84;;;-9.96;62.09
65534;BME280;53640;55.838;37.184;2022-12-19T03:24:08;100101.47;;;-9.96;62.00
65534;BME280;53640;55.838;37.184;2022-12-19T03:26:53;100122.63;;;-9.81;62.04
65534;BME280;53640;55.838;37.184;2022-12-19T03:29:42;100078.09;;;-10.00;62.06
65534;BME280;53640;55.838;37.184;2022-12-19T03:32:12;100067.63;;;-10.00;62.04
65534;BME280;53640;55.838;37.184;2022-12-19T03:34:48;100089.50;;;-9.82;62.23
65534;BME280;53640;55.838;37.184;2022-12-19T03:37:18;100096.78;;;-9.70;62.06
65534;BME280;53640;55.838;37.184;2022-12-19T03:39:49;100100.28;;;-9.70;62.11
65534;BME280;53640;55.838;37.184;2022-12-19T03:42:20;100052.78;;;-10.00;61.94
65534;BME280;53640;55.838;37.184;2022-12-19T03:45:07;100062.81;;;-9.91;61.97
65534;BME280;53640;55.838;37.184;2022-12-19T03:47:44;100084.00;;;-9.76;61.95
65534;BME280;53640;55.838;37.184;2022-12-19T03:50:13;100107.97;;;-9.67;62.04
65534;BME280;53640;55.838;37.184;2022-12-19T03:55:19;100073.66;;;-9.79;61.90
65534;BME280;53640;55.838;37.184;2022-12-19T03:57:54;100092.97;;;-9.63;62.00
65534;BME280;53640;55.838;37.184;2022-12-19T04:00:23;100056.53;;;-9.86;61.71
65534;BME280;53640;55.838;37.184;2022-12-19T04:02:53;99982.59;;;-10.29;61.72
65534;BME280;53640;55.838;37.184;2022-12-19T04:05:22;100101.69;;;-9.62;61.90
65534;BME280;53640;55.838;37.184;2022-12-19T04:07:53;100093.91;;;-9.64;62.17
65534;BME280;53640;55.838;37.184;2022-12-19T04:10:23;100063.44;;;-9.85;62.33
65534;BME280;53640;55.838;37.184;2022-12-19T04:13:06;100088.44;;;-9.59;62.49
65534;BME280;53640;55.838;37.184;2022-12-19T04:18:13;100053.75;;;-9.83;62.81
65534;BME280;53640;55.838;37.184;2022-12-19T04:20:45;100076.28;;;-9.79;62.65
65534;BME280;53640;55.838;37.184;2022-12-19T04:23:19;100091.41;;;-9.67;63.11
65534;BME280;53640;55.838;37.184;2022-12-19T04:25:51;100096.59;;;-9.66;63.07
65534;BME280;53640;55.838;37.184;2022-12-19T04:28:28;100060.81;;;-9.85;63.38
65534;BME280;53640;55.838;37.184;2022-12-19T04:30:55;100108.41;;;-9.57;63.33
65534;BME280;53640;55.838;37.184;2022-12-19T04:33:23;100112.72;;;-9.56;63.42
65534;BME280;53640;55.838;37.184;2022-12-19T04:35:50;100110.31;;;-9.60;63.54
65534;BME280;53640;55.838;37.184;2022-12-19T04:38:16;100080.53;;;-9.77;63.77
65534;BME280;53640;55.838;37.184;2022-12-19T04:40:43;100069.13;;;-9.76;63.69
65534;BME280;53640;55.838;37.184;2022-12-19T04:43:10;100087.66;;;-9.61;63.80
65534;BME280;53640;55.838;37.184;2022-12-19T04:45:39;100070.69;;;-9.72;63.91
65534;BME280;53640;55.838;37.184;2022-12-19T04:48:07;100082.44;;;-9.61;63.76
65534;BME280;53640;55.838;37.184;2022-12-19T04:50:33;100068.13;;;-9.73;63.98
65534;BME280;53640;55.838;37.184;2022-12-19T04:53:00;100116.03;;;-9.33;64.07
65534;BME280;53640;55.838;37.184;2022-12-19T04:55:26;100101.25;;;-9.34;64.08
65534;BME280;53640;55.838;37.184;2022-12-19T04:57:52;100091.59;;;-9.34;64.02
65534;BME280;53640;55.838;37.184;2022-12-19T05:00:19;100045.91;;;-9.65;64.09
65534;BME280;53640;55.838;37.184;2022-12-19T05:02:45;100130.41;;;-9.23;64.22
65534;BME280;53640;55.838;37.184;2022-12-19T05:05:11;100063.13;;;-9.42;64.27
65534;BME280;53640;55.838;37.184;2022-12-19T05:07:38;100050.66;;;-9.36;64.12
65534;BME280;53640;55.838;37.184;2022-12-19T05:10:07;99948.94;;;-10.01;64.36
65534;BME280;53640;55.838;37.184;2022-12-19T05:12:33;100062.78;;;-9.34;64.43
65534;BME280;53640;55.838;37.184;2022-12-19T05:14:59;100086.88;;;-9.08;64.44
65534;BME280;53640;55.838;37.184;2022-12-19T05:17:26;100096.00;;;-8.98;64.49
65534;BME280;53640;55.838;37.184;2022-12-19T05:19:52;100041.56;;;-9.29;64.33
65534;BME280;53640;55.838;37.184;2022-12-19T05:22:19;100045.53;;;-9.21;64.50
65534;BME280;53640;55.838;37.184;2022-12-19T05:24:46;100038.75;;;-9.25;64.60
65534;BME280;53640;55.838;37.184;2022-12-19T05:27:13;100104.41;;;-8.92;64.41
65534;BME280;53640;55.838;37.184;2022-12-19T05:29:39;100045.22;;;-9.15;64.37
65534;BME280;53640;55.838;37.184;2022-12-19T05:32:06;100106.81;;;-8.87;64.71
65534;BME280;53640;55.838;37.184;2022-12-19T05:34:32;100046.94;;;-9.13;64.55
65534;BME280;53640;55.838;37.184;2022-12-19T05:36:59;100090.06;;;-8.84;64.54
65534;BME280;53640;55.838;37.184;2022-12-19T05:39:28;100047.78;;;-9.13;64.30
65534;BME280;53640;55.838;37.184;2022-12-19T05:41:55;100090.91;;;-8.84;64.63
65534;BME280;53640;55.838;37.184;2022-12-19T05:44:22;100033.66;;;-9.10;64.08
65534;BME280;53640;55.838;37.184;2022-12-19T05:46:48;100059.91;;;-8.93;64.56
65534;BME280;53640;55.838;37.184;2022-12-19T05:49:14;100053.47;;;-8.87;64.41
65534;BME280;53640;55.838;37.184;2022-12-19T05:51:41;100082.44;;;-8.72;64.54
65534;BME280;53640;55.838;37.184;2022-12-19T05:54:07;100041.91;;;-9.01;64.70
65534;BME280;53640;55.838;37.184;2022-12-19T05:56:33;100060.44;;;-8.86;64.93
65534;BME280;53640;55.838;37.184;2022-12-19T05:58:59;100072.34;;;-8.79;64.54
65534;BME280;53640;55.838;37.184;2022-12-19T06:01:26;100097.84;;;-8.66;64.68
65534;BME280;53640;55.838;37.184;2022-12-19T06:03:53;100052.03;;;-8.93;64.60
65534;BME280;53640;55.838;37.184;2022-12-19T06:06:23;100064.28;;;-8.94;64.65
65534;BME280;53640;55.838;37.184;2022-12-19T06:08:57;100115.53;;;-8.69;64.55
65534;BME280;53640;55.838;37.184;2022-12-19T06:11:25;100056.97;;;-9.04;64.61
65534;BME280;53640;55.838;37.184;2022-12-19T06:13:52;100102.41;;;-8.69;64.83
65534;BME280;53640;55.838;37.184;2022-12-19T06:16:20;100060.75;;;-8.93;64.58
65534;BME280;53640;55.838;37.184;2022-12-19T06:18:47;100107.59;;;-8.68;64.87
65534;BME280;53640;55.838;37.184;2022-12-19T06:21:19;100077.78;;;-8.84;64.92
65534;BME280;53640;55.838;37.184;2022-12-19T06:23:47;100107.34;;;-8.63;64.71
65534;BME280;53640;55.838;37.184;2022-12-19T06:26:15;100101.31;;;-8.65;65.02
65534;BME280;53640;55.838;37.184;2022-12-19T06:28:42;100081.81;;;-8.77;64.98
65534;BME280;53640;55.838;37.184;2022-12-19T06:31:09;100057.72;;;-8.85;65.12
65534;BME280;53640;55.838;37.184;2022-12-19T06:33:36;100105.19;;;-8.55;65.13
65534;BME280;53640;55.838;37.184;2022-12-19T06:36:05;100091.53;;;-8.61;65.15
65534;BME280;53640;55.838;37.184;2022-12-19T06:38:33;100027.72;;;-8.97;65.06
65534;BME280;53640;55.838;37.184;2022-12-19T06:41:02;100042.63;;;-8.80;65.01
65534;BME280;53640;55.838;37.184;2022-12-19T06:43:47;100093.59;;;-8.51;65.13
65534;BME280;53640;55.838;37.184;2022-12-19T06:46:14;100086.44;;;-8.47;65.16
65534;BME280;53640;55.838;37.184;2022-12-19T06:48:40;100062.25;;;-8.54;65.34
65534;BME280;53640;55.838;37.184;2022-12-19T06:51:06;100040.06;;;-8.64;65.40
65534;BME280;53640;55.838;37.184;2022-12-19T06:53:32;100067.06;;;-8.45;65.32
65534;BME280;53640;55.838;37.184;2022-12-19T06:55:59;100053.25;;;-8.48;65.58
65534;BME280;53640;55.838;37.184;2022-12-19T06:58:25;100028.41;;;-8.58;65.62
65534;BME280;53640;55.838;37.184;2022-12-19T07:00:52;100070.22;;;-8.38;65.50
65534;BME280;53640;55.838;37.184;2022-12-19T07:03:25;100091.13;;;-8.19;65.63
65534;BME280;53640;55.838;37.184;2022-12-19T07:05:52;100069.47;;;-8.24;65.54
65534;BME280;53640;55.838;37.184;2022-12-19T07:08:19;100083.69;;;-8.11;65.72
65534;BME280;53640;55.838;37.184;2022-12-19T07:10:45;100021.06;;;-8.52;65.95
65534;BME280;53640;55.838;37.184;2022-12-19T07:13:12;100042.88;;;-8.34;65.75
65534;BME280;53640;55.838;37.184;2022-12-19T07:15:40;100102.50;;;-8.03;65.95
65534;BME280;53640;55.838;37.184;2022-12-19T07:18:08;100032.63;;;-8.38;65.71
65534;BME280;53640;55.838;37.184;2022-12-19T07:20:36;100077.06;;;-8.18;65.59
65534;BME280;53640;55.838;37.184;2022-12-19T07:23:05;100076.25;;;-8.20;65.90
65534;BME280;53640;55.838;37.184;2022-12-19T07:25:33;100075.16;;;-8.16;65.70
65534;BME280;53640;55.838;37.184;2022-12-19T07:28:00;100086.59;;;-8.00;66.08
65534;BME280;53640;55.838;37.184;2022-12-19T07:30:26;100110.34;;;-7.85;66.12
65534;BME280;53640;55.838;37.184;2022-12-19T07:32:53;100119.81;;;-7.83;66.24
65534;BME280;53640;55.838;37.184;2022-12-19T07:35:19;100064.34;;;-8.10;66.14
65534;BME280;53640;55.838;37.184;2022-12-19T07:37:48;100078.53;;;-7.97;66.22
65534;BME280;53640;55.838;37.184;2022-12-19T07:40:15;100116.47;;;-7.69;66.20
65534;BME280;53640;55.838;37.184;2022-12-19T07:42:44;100089.75;;;-7.77;66.27
65534;BME280;53640;55.838;37.184;2022-12-19T07:45:11;100098.06;;;-7.69;66.48
65534;BME280;53640;55.838;37.184;2022-12-19T07:47:38;100097.75;;;-7.63;66.50
65534;BME280;53640;55.838;37.184;2022-12-19T07:50:05;100103.44;;;-7.55;66.17
65534;BME280;53640;55.838;37.184;2022-12-19T07:52:32;100048.88;;;-7.83;66.26
65534;BME280;53640;55.838;37.184;2022-12-19T07:54:58;100055.50;;;-7.76;66.13
65534;BME280;53640;55.838;37.184;2022-12-19T07:57:24;100109.78;;;-7.43;66.47
65534;BME280;53640;55.838;37.184;2022-12-19T07:59:51;100099.97;;;-7.39;66.61
65534;BME280;53640;55.838;37.184;2022-12-19T08:02:17;100109.22;;;-7.32;66.71
65534;BME280;53640;55.838;37.184;2022-12-19T08:04:45;100065.69;;;-7.54;66.63
65534;BME280;53640;55.838;37.184;2022-12-19T08:07:11;100076.63;;;-7.46;66.79
65534;BME280;53640;55.838;37.184;2022-12-19T08:09:37;100095.88;;;-7.29;66.82
65534;BME280;53640;55.838;37.184;2022-12-19T08:12:04;100099.69;;;-7.19;66.88
65534;BME280;53640;55.838;37.184;2022-12-19T08:14:30;100103.94;;;-7.16;66.76
65534;BME280;53640;55.838;37.184;2022-12-19T08:16:57;100080.00;;;-7.28;66.78
65534;BME280;53640;55.838;37.184;2022-12-19T08:19:23;100089.75;;;-7.14;66.88
65534;BME280;53640;55.838;37.184;2022-12-19T08:21:49;100072.47;;;-7.18;66.90
65534;BME280;53640;55.838;37.184;2022-12-19T08:24:16;100071.13;;;-7.25;66.77
65534;BME280;53640;55.838;37.184;2022-12-19T08:26:42;100042.50;;;-7.31;66.65
65534;BME280;53640;55.838;37.184;2022-12-19T08:29:08;100070.69;;;-7.17;66.85
65534;BME280;53640;55.838;37.184;2022-12-19T08:31:35;100079.25;;;-7.14;66.84
65534;BME280;53640;55.838;37.184;2022-12-19T08:34:01;100062.19;;;-7.23;66.87
65534;BME280;53640;55.838;37.184;2022-12-19T08:36:27;100101.28;;;-7.01;66.48
65534;BME280;53640;55.838;37.184;2022-12-19T08:38:54;100073.03;;;-7.13;66.81
65534;BME280;53640;55.838;37.184;2022-12-19T08:41:20;100105.41;;;-6.97;66.94
65534;BME280;53640;55.838;37.184;2022-12-19T08:43:52;100112.59;;;-6.84;66.94
65534;BME280;53640;55.838;37.184;2022-12-19T08:46:20;100117.88;;;-6.84;66.89
65534;BME280;53640;55.838;37.184;2022-12-19T08:48:47;100096.19;;;-6.88;66.95
65534;BME280;53640;55.838;37.184;2022-12-19T08:51:14;100087.50;;;-6.90;67.00
65534;BME280;53640;55.838;37.184;2022-12-19T08:53:43;100076.88;;;-6.88;66.99
65534;BME280;53640;55.838;37.184;2022-12-19T08:56:13;100088.06;;;-6.85;66.79
65534;BME280;53640;55.838;37.184;2022-12-19T08:58:40;100088.69;;;-6.80;66.89
65534;BME280;53640;55.838;37.184;2022-12-19T09:01:10;100090.94;;;-6.74;66.53
65534;BME280;53640;55.838;37.184;2022-12-19T09:03:41;100056.94;;;-6.92;67.02
65534;BME280;53640;55.838;37.184;2022-12-19T09:06:09;100038.06;;;-6.99;67.10
65534;BME280;53640;55.838;37.184;2022-12-19T09:08:36;100073.91;;;-6.82;66.92
65534;BME280;53640;55.838;37.184;2022-12-19T09:11:11;100080.59;;;-6.77;67.04
65534;BME280;53640;55.838;37.184;2022-12-19T09:13:39;100072.03;;;-6.80;67.01
65534;BME280;53640;55.838;37.184;2022-12-19T09:16:11;100070.09;;;-6.77;67.13
65534;BME280;53640;55.838;37.184;2022-12-19T09:18:38;100040.41;;;-6.94;66.74
65534;BME280;53640;55.838;37.184;2022-12-19T09:21:05;100064.88;;;-6.78;66.85
65534;BME280;53640;55.838;37.184;2022-12-19T09:23:31;100081.69;;;-6.65;67.11
65534;BME280;53640;55.838;37.184;2022-12-19T09:26:07;100089.97;;;-6.57;66.95
65534;BME280;53640;55.838;37.184;2022-12-19T09:28:34;100101.72;;;-6.48;67.08
65534;BME280;53640;55.838;37.184;2022-12-19T09:31:11;99982.25;;;-7.20;67.06
65534;BME280;53640;55.838;37.184;2022-12-19T09:33:38;100064.72;;;-6.75;67.07
65534;BME280;53640;55.838;37.184;2022-12-19T09:36:06;100105.88;;;-6.44;67.24
65534;BME280;53640;55.838;37.184;2022-12-19T09:38:34;100036.50;;;-6.73;67.14
65534;BME280;53640;55.838;37.184;2022-12-19T09:43:42;100106.38;;;-6.37;67.05
65534;BME280;53640;55.838;37.184;2022-12-19T09:49:16;100023.34;;;-6.73;67.24
65534;BME280;53640;55.838;37.184;2022-12-19T09:54:40;100088.41;;;-6.31;67.32
65534;BME280;53640;55.838;37.184;2022-12-19T09:57:13;100088.41;;;-6.31;67.17
65534;BME280;53640;55.838;37.184;2022-12-19T09:59:47;100039.94;;;-6.57;67.35
65534;BME280;53640;55.838;37.184;2022-12-19T10:05:17;100056.50;;;-6.40;67.33
65534;BME280;53640;55.838;37.184;2022-12-19T10:07:47;100054.72;;;-6.40;67.55
65534;BME280;53640;55.838;37.184;2022-12-19T10:10:25;100074.00;;;-6.25;67.29
65534;BME280;53640;55.838;37.184;2022-12-19T10:13:04;100092.47;;;-6.11;67.51
65534;BME280;53640;55.838;37.184;2022-12-19T10:18:28;100078.81;;;-6.17;67.53
65534;BME280;53640;55.838;37.184;2022-12-19T10:21:06;100088.69;;;-6.21;67.43
65534;BME280;53640;55.838;37.184;2022-12-19T10:26:18;100074.97;;;-6.12;67.54
65534;BME280;53640;55.838;37.184;2022-12-19T10:31:40;100076.66;;;-6.11;67.37
65534;BME280;53640;55.838;37.184;2022-12-19T10:36:50;100074.78;;;-6.09;67.46
65534;BME280;53640;55.838;37.184;2022-12-19T10:41:50;100033.56;;;-6.38;67.53
65534;BME280;53640;55.838;37.184;2022-12-19T10:44:21;100070.66;;;-6.13;67.71
65534;BME280;53640;55.838;37.184;2022-12-19T10:46:48;100043.63;;;-6.31;67.73
65534;BME280;53640;55.838;37.184;2022-12-19T10:49:18;100091.81;;;-6.00;67.89
65534;BME280;53640;55.838;37.184;2022-12-19T10:52:02;100092.38;;;-5.95;67.66
65534;BME280;53640;55.838;37.184;2022-12-19T11:00:05;100095.13;;;-5.96;67.61
65534;BME280;53640;55.838;37.184;2022-12-19T11:05:29;100099.75;;;-5.86;67.97
65534;BME280;53640;55.838;37.184;2022-12-19T11:10:36;100106.34;;;-5.79;67.94
65534;BME280;53640;55.838;37.184;2022-12-19T11:15:50;100109.63;;;-5.75;67.50
65534;BME280;53640;55.838;37.184;2022-12-19T11:18:17;100107.00;;;-5.75;67.70
65534;BME280;53640;55.838;37.184;2022-12-19T11:29:47;100102.25;;;-5.70;67.54
65534;BME280;53640;55.838;37.184;2022-12-19T11:32:44;100103.88;;;-5.67;67.69
65534;BME280;53640;55.838;37.184;2022-12-19T11:35:23;100110.25;;;-5.71;67.70
65534;BME280;53640;55.838;37.184;2022-12-19T11:38:00;100088.13;;;-5.83;67.79
65534;BME280;53640;55.838;37.184;2022-12-19T11:40:37;100116.94;;;-5.66;67.59
65534;BME280;53640;55.838;37.184;2022-12-19T11:52:29;100118.63;;;-5.65;67.74
65534;BME280;53640;55.838;37.184;2022-12-19T11:57:30;100116.00;;;-5.65;67.80
65534;BME280;53640;55.838;37.184;2022-12-19T11:59:57;100114.69;;;-5.58;67.74
65534;BME280;53640;55.838;37.184;2022-12-19T12:07:37;100106.75;;;-5.58;67.91
65534;BME280;53640;55.838;37.184;2022-12-19T12:10:15;100108.84;;;-5.63;67.72
65534;BME280;53640;55.838;37.184;2022-12-19T12:13:13;100127.97;;;-5.45;67.81
65534;BME280;53640;55.838;37.184;2022-12-19T12:15:40;100130.50;;;-5.43;67.88
65534;BME280;53640;55.838;37.184;2022-12-19T12:26:45;100101.91;;;-5.64;67.52
65534;BME280;53640;55.838;37.184;2022-12-19T12:29:22;100164.41;;;-5.37;67.72
65534;BME280;53640;55.838;37.184;2022-12-19T12:43:22;100177.00;;;-5.28;68.42
65534;BME280;53640;55.838;37.184;2022-12-19T12:45:56;100163.63;;;-5.25;68.38
65534;BME280;53640;55.838;37.184;2022-12-19T12:49:02;100171.16;;;-5.19;68.35
65534;BME280;53640;55.838;37.184;2022-12-19T12:51:30;100034.31;;;-6.08;68.54
65534;BME280;53640;55.838;37.184;2022-12-19T12:54:11;100179.44;;;-5.11;68.20
65534;BME280;53640;55.838;37.184;2022-12-19T12:56:38;100062.16;;;-5.75;68.08
65534;BME280;53640;55.838;37.184;2022-12-19T12:59:17;100105.59;;;-5.39;68.23
65534;BME280;53640;55.838;37.184;2022-12-19T13:01:54;100147.78;;;-5.11;68.22
65534;BME280;53640;55.838;37.184;2022-12-19T13:04:34;100132.50;;;-5.20;68.04
65534;BME280;53640;55.838;37.184;2022-12-19T13:07:26;100179.41;;;-4.96;67.93
65534;BME280;53640;55.838;37.184;2022-12-19T13:13:16;100175.00;;;-4.96;68.01
65534;BME280;53640;55.838;37.184;2022-12-19T13:15:44;100087.75;;;-5.48;68.29
65534;BME280;53640;55.838;37.184;2022-12-19T13:18:30;100129.78;;;-5.18;68.48
65534;BME280;53640;55.838;37.184;2022-12-19T13:20:59;100158.50;;;-4.99;68.44
65534;BME280;53640;55.838;37.184;2022-12-19T13:25:55;100120.38;;;-5.22;67.75
65534;BME280;53640;55.838;37.184;2022-12-19T13:36:44;100197.16;;;-4.71;68.08
65534;BME280;53640;55.838;37.184;2022-12-19T13:39:34;100202.38;;;-4.70;68.52
65534;BME280;53640;55.838;37.184;2022-12-19T13:42:16;100152.25;;;-4.98;68.42
65534;BME280;53640;55.838;37.184;2022-12-19T13:47:44;100196.31;;;-4.72;68.48
65534;BME280;53640;55.838;37.184;2022-12-19T13:52:49;100191.50;;;-4.65;68.78
65534;BME280;53640;55.838;37.184;2022-12-19T13:55:16;100172.94;;;-4.78;68.77
65534;BME280;53640;55.838;37.184;2022-12-19T13:57:46;100197.50;;;-4.63;68.78
65534;BME280;53640;55.838;37.184;2022-12-19T14:00:18;100181.13;;;-4.68;67.98
65534;BME280;53640;55.838;37.184;2022-12-19T14:02:53;100187.59;;;-4.60;68.26
65534;BME280;53640;55.838;37.184;2022-12-19T14:05:25;100186.84;;;-4.62;68.42
65534;BME280;53640;55.838;37.184;2022-12-19T14:07:52;100200.94;;;-4.48;68.29
65534;BME280;53640;55.838;37.184;2022-12-19T14:10:27;100174.69;;;-4.64;68.53
65534;BME280;53640;55.838;37.184;2022-12-19T14:12:57;100163.88;;;-4.74;68.57
65534;BME280;53640;55.838;37.184;2022-12-19T14:15:44;100190.69;;;-4.53;68.39
65534;BME280;53640;55.838;37.184;2022-12-19T14:18:18;100211.13;;;-4.42;68.70
65534;BME280;53640;55.838;37.184;2022-12-19T14:20:47;100166.88;;;-4.66;68.58
65534;BME280;53640;55.838;37.184;2022-12-19T14:23:13;100214.50;;;-4.40;68.57
65534;BME280;53640;55.838;37.184;2022-12-19T14:25:49;100161.88;;;-4.70;68.32
65534;BME280;53640;55.838;37.184;2022-12-19T14:28:40;100204.88;;;-4.41;68.45
65534;BME280;53640;55.838;37.184;2022-12-19T14:31:11;100218.53;;;-4.35;68.43
65534;BME280;53640;55.838;37.184;2022-12-19T14:33:47;100180.50;;;-4.59;68.63
65534;BME280;53640;55.838;37.184;2022-12-19T14:36:25;100210.94;;;-4.39;68.47
65534;BME280;53640;55.838;37.184;2022-12-19T14:38:53;100223.81;;;-4.35;68.48
65534;BME280;53640;55.838;37.184;2022-12-19T14:44:15;100204.50;;;-4.35;68.51
65534;BME280;53640;55.838;37.184;2022-12-19T14:46:42;100206.94;;;-4.32;68.57
65534;BME280;53640;55.838;37.184;2022-12-19T14:49:25;100212.75;;;-4.27;68.50
65534;BME280;53640;55.838;37.184;2022-12-19T14:51:51;100210.09;;;-4.27;68.36
65534;BME280;53640;55.838;37.184;2022-12-19T14:54:23;100143.38;;;-4.70;68.64
65534;BME280;53640;55.838;37.184;2022-12-19T14:56:56;100221.22;;;-4.22;68.42
65534;BME280;53640;55.838;37.184;2022-12-19T15:02:11;100212.56;;;-4.24;68.40
65534;BME280;53640;55.838;37.184;2022-12-19T15:04:47;100204.28;;;-4.32;68.37
65534;BME280;53640;55.838;37.184;2022-12-19T15:07:28;100218.75;;;-4.25;68.66
65534;BME280;53640;55.838;37.184;2022-12-19T15:10:17;100233.06;;;-4.15;68.55
65534;BME280;53640;55.838;37.184;2022-12-19T15:15:41;100222.50;;;-4.15;68.68
65534;BME280;53640;55.838;37.184;2022-12-19T15:18:18;100198.34;;;-4.36;68.29
65534;BME280;53640;55.838;37.184;2022-12-19T15:20:45;100203.34;;;-4.31;68.42